sensor_id;sensor_type;location;lat;lon;timestamp;temperature;humidity
17619;DHT22;8928;51.678;6.074;2022-08-19T00:02:39;16.20;99.90
17619;DHT22;8928;51.678;6.074;2022-08-19T00:05:26;16.20;99.90
17619;DHT22;8928;51.678;6.074;2022-08-19T00:08:13;16.20;99.90
17619;DHT22;8928;51.678;6.074;2022-08-19T00:11:00;16.10;99.90
17619;DHT22;8928;51.678;6.074;2022-08-19T00:13:47;16.10;99.90
17619;DHT22;8928;51.678;6.074;2022-08-19T00:16:36;16.10;99.90
17619;DHT22;8928;51.678;6.074;2022-08-19T00:19:25;16.10;99.90
17619;DHT22;8928;51.678;6.074;2022-08-19T00:22:12;16.00;99.90
17619;DHT22;8928;51.678;6.074;2022-08-19T00:25:00;16.00;99.90
17619;DHT22;8928;51.678;6.074;2022-08-19T00:27:47;15.90;99.90
17619;DHT22;8928;51.678;6.074;2022-08-19T00:30:34;15.90;99.90
17619;DHT22;8928;51.678;6.074;2022-08-19T00:33:22;15.90;99.90
17619;DHT22;8928;51.678;6.074;2022-08-19T00:36:11;15.80;99.90
17619;DHT22;8928;51.678;6.074;2022-08-19T00:38:59;15.80;99.90
17619;DHT22;8928;51.678;6.074;2022-08-19T00:41:47;15.70;99.90
17619;DHT22;8928;51.678;6.074;2022-08-19T00:44:35;15.60;99.90
17619;DHT22;8928;51.678;6.074;2022-08-19T00:47:22;15.60;99.90
17619;DHT22;8928;51.678;6.074;2022-08-19T00:50:11;15.50;99.90
17619;DHT22;8928;51.678;6.074;2022-08-19T00:53:01;15.50;99.90
17619;DHT22;8928;51.678;6.074;2022-08-19T00:55:52;15.50;99.90
17619;DHT22;8928;51.678;6.074;2022-08-19T00:58:40;15.50;99.90
17619;DHT22;8928;51.678;6.074;2022-08-19T01:01:27;15.50;99.90
17619;DHT22;8928;51.678;6.074;2022-08-19T01:04:14;15.40;99.90
17619;DHT22;8928;51.678;6.074;2022-08-19T01:07:01;15.40;99.90
17619;DHT22;8928;51.678;6.074;2022-08-19T01:09:50;15.40;99.90
17619;DHT22;8928;51.678;6.074;2022-08-19T01:12:38;15.40;99.90
17619;DHT22;8928;51.678;6.074;2022-08-19T01:15:30;15.40;99.90
17619;DHT22;8928;51.678;6.074;2022-08-19T01:18:19;15.40;99.90
17619;DHT22;8928;51.678;6.074;2022-08-19T01:21:10;15.30;99.90
17619;DHT22;8928;51.678;6.074;2022-08-19T01:24:03;15.30;99.90
17619;DHT22;8928;51.678;6.074;2022-08-19T01:26:51;15.30;99.90
17619;DHT22;8928;51.678;6.074;2022-08-19T01:29:39;15.20;99.90
17619;DHT22;8928;51.678;6.074;2022-08-19T01:32:27;15.20;99.90
17619;DHT22;8928;51.678;6.074;2022-08-19T01:35:16;15.20;99.90
17619;DHT22;8928;51.678;6.074;2022-08-19T01:38:07;15.20;99.90
17619;DHT22;8928;51.678;6.074;2022-08-19T01:40:57;15.20;99.90
17619;DHT22;8928;51.678;6.074;2022-08-19T01:43:45;15.20;99.90
17619;DHT22;8928;51.678;6.074;2022-08-19T01:46:33;15.10;99.90
17619;DHT22;8928;51.678;6.074;2022-08-19T01:49:23;15.10;99.90
17619;DHT22;8928;51.678;6.074;2022-08-19T01:52:10;15.20;99.90
17619;DHT22;8928;51.678;6.074;2022-08-19T01:54:58;15.20;99.90
17619;DHT22;8928;51.678;6.074;2022-08-19T01:57:50;15.30;99.90
17619;DHT22;8928;51.678;6.074;2022-08-19T02:00:38;15.30;99.90
17619;DHT22;8928;51.678;6.074;2022-08-19T02:03:26;15.40;99.90
17619;DHT22;8928;51.678;6.074;2022-08-19T02:06:13;15.40;99.90
17619;DHT22;8928;51.678;6.074;2022-08-19T02:09:03;15.30;99.90
17619;DHT22;8928;51.678;6.074;2022-08-19T02:11:50;15.30;99.90
17619;DHT22;8928;51.678;6.074;2022-08-19T02:14:38;15.30;99.90
17619;DHT22;8928;51.678;6.074;2022-08-19T02:17:25;15.30;99.90
17619;DHT22;8928;51.678;6.074;2022-08-19T02:20:15;15.20;99.90
17619;DHT22;8928;51.678;6.074;2022-08-19T02:23:02;15.20;99.90
17619;DHT22;8928;51.678;6.074;2022-08-19T02:25:51;15.20;99.90
17619;DHT22;8928;51.678;6.074;2022-08-19T02:28:39;15.20;99.90
17619;DHT22;8928;51.678;6.074;2022-08-19T02:31:28;15.20;99.90
17619;DHT22;8928;51.678;6.074;2022-08-19T02:34:15;15.20;99.90
17619;DHT22;8928;51.678;6.074;2022-08-19T02:37:03;15.10;99.90
17619;DHT22;8928;51.678;6.074;2022-08-19T02:39:50;15.10;99.90
17619;DHT22;8928;51.678;6.074;2022-08-19T02:42:36;15.00;99.90
17619;DHT22;8928;51.678;6.074;2022-08-19T02:45:23;15.00;99.90
17619;DHT22;8928;51.678;6.074;2022-08-19T02:48:12;15.00;99.90
17619;DHT22;8928;51.678;6.074;2022-08-19T02:50:59;14.90;99.90
17619;DHT22;8928;51.678;6.074;2022-08-19T02:53:46;15.00;99.90
17619;DHT22;8928;51.678;6.074;2022-08-19T02:56:35;15.00;99.90
17619;DHT22;8928;51.678;6.074;2022-08-19T02:59:22;14.90;99.90
17619;DHT22;8928;51.678;6.074;2022-08-19T03:02:10;14.90;99.90
17619;DHT22;8928;51.678;6.074;2022-08-19T03:04:58;14.90;99.90
17619;DHT22;8928;51.678;6.074;2022-08-19T03:07:46;14.90;99.90
17619;DHT22;8928;51.678;6.074;2022-08-19T03:10:40;14.90;99.90
17619;DHT22;8928;51.678;6.074;2022-08-19T03:13:27;14.90;99.90
17619;DHT22;8928;51.678;6.074;2022-08-19T03:16:15;14.90;99.90
17619;DHT22;8928;51.678;6.074;2022-08-19T03:19:02;14.90;99.90
17619;DHT22;8928;51.678;6.074;2022-08-19T03:21:52;14.80;99.90
17619;DHT22;8928;51.678;6.074;2022-08-19T03:24:39;14.80;99.90
17619;DHT22;8928;51.678;6.074;2022-08-19T03:27:26;14.70;99.90
17619;DHT22;8928;51.678;6.074;2022-08-19T03:30:14;14.70;99.90
17619;DHT22;8928;51.678;6.074;2022-08-19T03:33:01;14.80;99.90
17619;DHT22;8928;51.678;6.074;2022-08-19T03:36:00;14.70;99.90
17619;DHT22;8928;51.678;6.074;2022-08-19T03:38:51;14.70;99.90
17619;DHT22;8928;51.678;6.074;2022-08-19T03:41:42;14.60;99.90
17619;DHT22;8928;51.678;6.074;2022-08-19T03:44:29;14.60;99.90
17619;DHT22;8928;51.678;6.074;2022-08-19T03:47:18;14.60;99.90
17619;DHT22;8928;51.678;6.074;2022-08-19T03:50:05;14.50;99.90
17619;DHT22;8928;51.678;6.074;2022-08-19T03:52:52;14.40;99.90
17619;DHT22;8928;51.678;6.074;2022-08-19T03:55:41;14.40;99.90
17619;DHT22;8928;51.678;6.074;2022-08-19T03:58:29;14.40;99.90
17619;DHT22;8928;51.678;6.074;2022-08-19T04:01:18;14.40;99.90
17619;DHT22;8928;51.678;6.074;2022-08-19T04:04:06;14.40;99.90
17619;DHT22;8928;51.678;6.074;2022-08-19T04:06:53;14.40;99.90
17619;DHT22;8928;51.678;6.074;2022-08-19T04:09:40;14.30;99.90
17619;DHT22;8928;51.678;6.074;2022-08-19T04:12:28;14.40;99.90
17619;DHT22;8928;51.678;6.074;2022-08-19T04:15:16;14.60;99.90
17619;DHT22;8928;51.678;6.074;2022-08-19T04:18:03;14.60;99.90
17619;DHT22;8928;51.678;6.074;2022-08-19T04:20:51;14.70;99.90
17619;DHT22;8928;51.678;6.074;2022-08-19T04:23:38;14.70;99.90
17619;DHT22;8928;51.678;6.074;2022-08-19T04:26:28;14.70;99.90
17619;DHT22;8928;51.678;6.074;2022-08-19T04:29:21;14.70;99.90
17619;DHT22;8928;51.678;6.074;2022-08-19T04:32:10;14.70;99.90
17619;DHT22;8928;51.678;6.074;2022-08-19T04:34:59;14.70;99.90
17619;DHT22;8928;51.678;6.074;2022-08-19T04:37:46;14.60;99.90
17619;DHT22;8928;51.678;6.074;2022-08-19T04:40:34;14.60;99.90
17619;DHT22;8928;51.678;6.074;2022-08-19T04:43:39;14.50;99.90
17619;DHT22;8928;51.678;6.074;2022-08-19T04:46:27;14.50;99.90
17619;DHT22;8928;51.678;6.074;2022-08-19T04:49:17;14.50;99.90
17619;DHT22;8928;51.678;6.074;2022-08-19T04:52:05;14.50;99.90
17619;DHT22;8928;51.678;6.074;2022-08-19T04:54:52;14.50;99.90
17619;DHT22;8928;51.678;6.074;2022-08-19T04:57:41;14.50;99.90
17619;DHT22;8928;51.678;6.074;2022-08-19T05:00:28;14.50;99.90
17619;DHT22;8928;51.678;6.074;2022-08-19T05:03:16;14.50;99.90
17619;DHT22;8928;51.678;6.074;2022-08-19T05:06:05;14.50;99.90
17619;DHT22;8928;51.678;6.074;2022-08-19T05:08:53;14.50;99.90
17619;DHT22;8928;51.678;6.074;2022-08-19T05:11:40;14.60;99.90
17619;DHT22;8928;51.678;6.074;2022-08-19T05:14:27;14.60;99.90
17619;DHT22;8928;51.678;6.074;2022-08-19T05:17:15;14.60;99.90
17619;DHT22;8928;51.678;6.074;2022-08-19T05:20:05;14.70;99.90
17619;DHT22;8928;51.678;6.074;2022-08-19T05:23:10;14.80;99.90
17619;DHT22;8928;51.678;6.074;2022-08-19T05:26:00;14.90;99.90
17619;DHT22;8928;51.678;6.074;2022-08-19T05:28:47;15.00;99.90
17619;DHT22;8928;51.678;6.074;2022-08-19T05:31:35;15.20;99.90
17619;DHT22;8928;51.678;6.074;2022-08-19T05:34:24;15.20;99.90
17619;DHT22;8928;51.678;6.074;2022-08-19T05:37:13;15.20;99.90
17619;DHT22;8928;51.678;6.074;2022-08-19T05:40:01;15.20;99.90
17619;DHT22;8928;51.678;6.074;2022-08-19T05:42:48;15.30;99.90
17619;DHT22;8928;51.678;6.074;2022-08-19T05:45:38;15.50;99.90
17619;DHT22;8928;51.678;6.074;2022-08-19T05:48:26;15.60;99.90
17619;DHT22;8928;51.678;6.074;2022-08-19T05:51:14;15.80;99.90
17619;DHT22;8928;51.678;6.074;2022-08-19T05:54:05;15.80;99.90
17619;DHT22;8928;51.678;6.074;2022-08-19T05:56:53;15.90;99.90
17619;DHT22;8928;51.678;6.074;2022-08-19T05:59:40;16.10;99.90
17619;DHT22;8928;51.678;6.074;2022-08-19T06:02:28;16.20;99.90
17619;DHT22;8928;51.678;6.074;2022-08-19T06:05:16;16.30;99.90
17619;DHT22;8928;51.678;6.074;2022-08-19T06:08:03;16.30;99.90
17619;DHT22;8928;51.678;6.074;2022-08-19T06:10:52;16.40;99.90
17619;DHT22;8928;51.678;6.074;2022-08-19T06:13:40;16.50;99.90
17619;DHT22;8928;51.678;6.074;2022-08-19T06:16:27;16.60;99.90
17619;DHT22;8928;51.678;6.074;2022-08-19T06:19:19;16.80;99.90
17619;DHT22;8928;51.678;6.074;2022-08-19T06:22:07;16.90;99.90
17619;DHT22;8928;51.678;6.074;2022-08-19T06:24:56;17.10;99.90
17619;DHT22;8928;51.678;6.074;2022-08-19T06:27:44;17.20;99.90
17619;DHT22;8928;51.678;6.074;2022-08-19T06:30:31;17.30;99.90
17619;DHT22;8928;51.678;6.074;2022-08-19T06:33:18;17.50;99.90
17619;DHT22;8928;51.678;6.074;2022-08-19T06:36:06;17.60;99.90
17619;DHT22;8928;51.678;6.074;2022-08-19T06:38:53;17.80;99.90
17619;DHT22;8928;51.678;6.074;2022-08-19T06:41:43;18.00;99.90
17619;DHT22;8928;51.678;6.074;2022-08-19T06:44:34;18.10;99.90
17619;DHT22;8928;51.678;6.074;2022-08-19T06:47:22;18.20;99.90
17619;DHT22;8928;51.678;6.074;2022-08-19T06:50:09;18.30;99.90
17619;DHT22;8928;51.678;6.074;2022-08-19T06:52:56;18.40;99.90
17619;DHT22;8928;51.678;6.074;2022-08-19T06:55:43;18.50;99.90
17619;DHT22;8928;51.678;6.074;2022-08-19T06:58:31;18.50;99.90
17619;DHT22;8928;51.678;6.074;2022-08-19T07:01:20;18.60;99.90
17619;DHT22;8928;51.678;6.074;2022-08-19T07:04:08;18.60;99.90
17619;DHT22;8928;51.678;6.074;2022-08-19T07:07:00;18.70;99.90
17619;DHT22;8928;51.678;6.074;2022-08-19T07:09:50;18.80;99.90
17619;DHT22;8928;51.678;6.074;2022-08-19T07:12:38;19.00;99.90
17619;DHT22;8928;51.678;6.074;2022-08-19T07:15:26;19.10;99.90
17619;DHT22;8928;51.678;6.074;2022-08-19T07:18:15;19.20;99.90
17619;DHT22;8928;51.678;6.074;2022-08-19T07:21:04;19.20;99.90
17619;DHT22;8928;51.678;6.074;2022-08-19T07:23:51;19.20;99.90
17619;DHT22;8928;51.678;6.074;2022-08-19T07:26:41;19.10;99.90
17619;DHT22;8928;51.678;6.074;2022-08-19T07:29:30;19.10;99.90
17619;DHT22;8928;51.678;6.074;2022-08-19T07:32:18;19.20;99.90
17619;DHT22;8928;51.678;6.074;2022-08-19T07:35:08;19.30;99.90
17619;DHT22;8928;51.678;6.074;2022-08-19T07:37:56;19.40;99.90
17619;DHT22;8928;51.678;6.074;2022-08-19T07:40:44;19.60;99.90
17619;DHT22;8928;51.678;6.074;2022-08-19T07:43:31;19.80;99.90
17619;DHT22;8928;51.678;6.074;2022-08-19T07:46:19;19.90;99.90
17619;DHT22;8928;51.678;6.074;2022-08-19T07:49:07;20.10;99.90
17619;DHT22;8928;51.678;6.074;2022-08-19T07:52:07;20.30;99.90
17619;DHT22;8928;51.678;6.074;2022-08-19T07:54:54;20.40;99.90
17619;DHT22;8928;51.678;6.074;2022-08-19T07:57:41;20.50;99.90
17619;DHT22;8928;51.678;6.074;2022-08-19T08:00:29;20.60;99.90
17619;DHT22;8928;51.678;6.074;2022-08-19T08:03:18;20.60;99.90
17619;DHT22;8928;51.678;6.074;2022-08-19T08:06:06;20.70;99.90
17619;DHT22;8928;51.678;6.074;2022-08-19T08:09:15;20.80;99.90
17619;DHT22;8928;51.678;6.074;2022-08-19T08:12:09;21.00;99.90
17619;DHT22;8928;51.678;6.074;2022-08-19T08:15:00;21.00;99.90
17619;DHT22;8928;51.678;6.074;2022-08-19T08:17:48;21.10;99.90
17619;DHT22;8928;51.678;6.074;2022-08-19T08:20:35;21.20;99.90
17619;DHT22;8928;51.678;6.074;2022-08-19T08:23:22;21.40;99.90
17619;DHT22;8928;51.678;6.074;2022-08-19T08:26:12;21.50;99.90
17619;DHT22;8928;51.678;6.074;2022-08-19T08:29:00;21.70;99.90
17619;DHT22;8928;51.678;6.074;2022-08-19T08:31:47;21.80;99.90
17619;DHT22;8928;51.678;6.074;2022-08-19T08:34:34;21.90;99.90
17619;DHT22;8928;51.678;6.074;2022-08-19T08:37:22;22.00;99.90
17619;DHT22;8928;51.678;6.074;2022-08-19T08:40:16;22.10;99.90
17619;DHT22;8928;51.678;6.074;2022-08-19T08:43:14;22.20;99.90
17619;DHT22;8928;51.678;6.074;2022-08-19T08:46:07;22.30;99.90
17619;DHT22;8928;51.678;6.074;2022-08-19T08:48:59;22.50;99.90
17619;DHT22;8928;51.678;6.074;2022-08-19T08:51:52;22.60;99.90
17619;DHT22;8928;51.678;6.074;2022-08-19T08:54:44;22.70;99.90
17619;DHT22;8928;51.678;6.074;2022-08-19T08:57:36;22.70;99.90
17619;DHT22;8928;51.678;6.074;2022-08-19T09:00:27;22.80;99.90
17619;DHT22;8928;51.678;6.074;2022-08-19T09:03:18;23.10;99.90
17619;DHT22;8928;51.678;6.074;2022-08-19T09:06:07;23.30;99.90
17619;DHT22;8928;51.678;6.074;2022-08-19T09:09:02;23.30;99.90
17619;DHT22;8928;51.678;6.074;2022-08-19T09:11:56;23.40;99.90
17619;DHT22;8928;51.678;6.074;2022-08-19T09:14:49;23.30;99.90
17619;DHT22;8928;51.678;6.074;2022-08-19T09:17:39;23.40;99.90
17619;DHT22;8928;51.678;6.074;2022-08-19T09:20:26;23.60;99.90
17619;DHT22;8928;51.678;6.074;2022-08-19T09:23:13;23.60;99.90
17619;DHT22;8928;51.678;6.074;2022-08-19T09:26:01;23.70;99.90
17619;DHT22;8928;51.678;6.074;2022-08-19T09:28:50;23.90;99.90
17619;DHT22;8928;51.678;6.074;2022-08-19T09:31:38;23.90;99.90
17619;DHT22;8928;51.678;6.074;2022-08-19T09:34:26;24.10;99.90
17619;DHT22;8928;51.678;6.074;2022-08-19T09:37:15;24.10;99.90
17619;DHT22;8928;51.678;6.074;2022-08-19T09:40:03;24.30;99.90
17619;DHT22;8928;51.678;6.074;2022-08-19T09:42:50;24.20;99.90
17619;DHT22;8928;51.678;6.074;2022-08-19T09:45:38;24.40;99.90
17619;DHT22;8928;51.678;6.074;2022-08-19T09:48:25;24.70;99.90
17619;DHT22;8928;51.678;6.074;2022-08-19T09:51:15;25.00;99.90
17619;DHT22;8928;51.678;6.074;2022-08-19T09:54:03;25.00;99.90
17619;DHT22;8928;51.678;6.074;2022-08-19T09:56:51;25.20;99.90
17619;DHT22;8928;51.678;6.074;2022-08-19T09:59:39;25.50;99.90
17619;DHT22;8928;51.678;6.074;2022-08-19T10:02:26;25.70;99.90
17619;DHT22;8928;51.678;6.074;2022-08-19T10:05:13;25.70;99.90
17619;DHT22;8928;51.678;6.074;2022-08-19T10:08:22;25.80;99.90
17619;DHT22;8928;51.678;6.074;2022-08-19T10:11:09;25.80;99.90
17619;DHT22;8928;51.678;6.074;2022-08-19T10:13:57;25.80;99.90
17619;DHT22;8928;51.678;6.074;2022-08-19T10:16:45;25.80;99.90
17619;DHT22;8928;51.678;6.074;2022-08-19T10:19:32;25.90;99.90
17619;DHT22;8928;51.678;6.074;2022-08-19T10:22:22;26.00;99.90
17619;DHT22;8928;51.678;6.074;2022-08-19T10:25:10;26.30;99.90
17619;DHT22;8928;51.678;6.074;2022-08-19T10:27:58;26.30;99.90
17619;DHT22;8928;51.678;6.074;2022-08-19T10:30:45;26.30;99.90
17619;DHT22;8928;51.678;6.074;2022-08-19T10:33:33;25.90;99.90
17619;DHT22;8928;51.678;6.074;2022-08-19T10:36:22;25.50;99.90
17619;DHT22;8928;51.678;6.074;2022-08-19T10:39:10;25.40;99.90
17619;DHT22;8928;51.678;6.074;2022-08-19T10:42:03;25.70;99.90
17619;DHT22;8928;51.678;6.074;2022-08-19T10:44:50;26.00;99.90
17619;DHT22;8928;51.678;6.074;2022-08-19T10:47:38;26.30;99.90
17619;DHT22;8928;51.678;6.074;2022-08-19T10:50:25;25.60;99.90
17619;DHT22;8928;51.678;6.074;2022-08-19T10:53:29;25.30;99.90
17619;DHT22;8928;51.678;6.074;2022-08-19T10:56:17;25.50;99.90
17619;DHT22;8928;51.678;6.074;2022-08-19T10:59:25;25.90;99.90
17619;DHT22;8928;51.678;6.074;2022-08-19T11:02:14;26.20;99.90
17619;DHT22;8928;51.678;6.074;2022-08-19T11:05:01;26.30;99.90
17619;DHT22;8928;51.678;6.074;2022-08-19T11:07:48;26.40;99.90
17619;DHT22;8928;51.678;6.074;2022-08-19T11:10:36;26.10;99.90
17619;DHT22;8928;51.678;6.074;2022-08-19T11:13:23;26.30;99.90
17619;DHT22;8928;51.678;6.074;2022-08-19T11:16:13;26.50;99.90
17619;DHT22;8928;51.678;6.074;2022-08-19T11:19:02;26.60;99.90
17619;DHT22;8928;51.678;6.074;2022-08-19T11:21:50;26.80;99.90
17619;DHT22;8928;51.678;6.074;2022-08-19T11:24:38;26.90;99.90
17619;DHT22;8928;51.678;6.074;2022-08-19T11:27:25;26.90;99.90
17619;DHT22;8928;51.678;6.074;2022-08-19T11:30:13;27.00;99.90
17619;DHT22;8928;51.678;6.074;2022-08-19T11:33:02;26.70;99.90
17619;DHT22;8928;51.678;6.074;2022-08-19T11:35:49;26.80;99.90
17619;DHT22;8928;51.678;6.074;2022-08-19T11:38:37;26.80;99.90
17619;DHT22;8928;51.678;6.074;2022-08-19T11:41:24;26.80;99.90
17619;DHT22;8928;51.678;6.074;2022-08-19T11:44:12;26.40;99.90
17619;DHT22;8928;51.678;6.074;2022-08-19T11:47:00;26.40;99.90
17619;DHT22;8928;51.678;6.074;2022-08-19T11:49:48;26.50;99.90
17619;DHT22;8928;51.678;6.074;2022-08-19T11:52:35;26.50;99.90
17619;DHT22;8928;51.678;6.074;2022-08-19T11:55:23;26.70;99.90
17619;DHT22;8928;51.678;6.074;2022-08-19T11:58:10;26.80;99.90
17619;DHT22;8928;51.678;6.074;2022-08-19T12:00:57;26.80;99.90
17619;DHT22;8928;51.678;6.074;2022-08-19T12:03:46;26.70;99.90
17619;DHT22;8928;51.678;6.074;2022-08-19T12:06:38;26.50;99.90
17619;DHT22;8928;51.678;6.074;2022-08-19T12:09:26;26.90;99.90
17619;DHT22;8928;51.678;6.074;2022-08-19T12:12:14;27.50;99.90
17619;DHT22;8928;51.678;6.074;2022-08-19T12:15:02;27.60;99.90
17619;DHT22;8928;51.678;6.074;2022-08-19T12:17:49;27.90;99.90
17619;DHT22;8928;51.678;6.074;2022-08-19T12:20:37;27.80;99.90
17619;DHT22;8928;51.678;6.074;2022-08-19T12:23:26;27.80;99.90
17619;DHT22;8928;51.678;6.074;2022-08-19T12:26:14;27.90;99.90
17619;DHT22;8928;51.678;6.074;2022-08-19T12:29:01;27.70;99.90
17619;DHT22;8928;51.678;6.074;2022-08-19T12:31:48;27.80;99.90
17619;DHT22;8928;51.678;6.074;2022-08-19T12:34:35;27.80;99.90
17619;DHT22;8928;51.678;6.074;2022-08-19T12:37:22;27.70;99.90
17619;DHT22;8928;51.678;6.074;2022-08-19T12:40:11;28.10;99.90
17619;DHT22;8928;51.678;6.074;2022-08-19T12:42:59;28.20;99.90
17619;DHT22;8928;51.678;6.074;2022-08-19T12:45:46;28.30;99.90
17619;DHT22;8928;51.678;6.074;2022-08-19T12:48:34;28.90;99.90
17619;DHT22;8928;51.678;6.074;2022-08-19T12:51:21;28.20;99.90
17619;DHT22;8928;51.678;6.074;2022-08-19T12:54:08;28.50;99.90
17619;DHT22;8928;51.678;6.074;2022-08-19T12:56:58;28.90;99.90
17619;DHT22;8928;51.678;6.074;2022-08-19T12:59:45;29.20;99.90
17619;DHT22;8928;51.678;6.074;2022-08-19T13:02:33;29.40;99.90
17619;DHT22;8928;51.678;6.074;2022-08-19T13:05:23;29.80;99.90
17619;DHT22;8928;51.678;6.074;2022-08-19T13:08:11;29.90;99.90
17619;DHT22;8928;51.678;6.074;2022-08-19T13:11:07;30.00;99.90
17619;DHT22;8928;51.678;6.074;2022-08-19T13:13:55;29.90;99.90
17619;DHT22;8928;51.678;6.074;2022-08-19T13:16:42;29.50;99.90
17619;DHT22;8928;51.678;6.074;2022-08-19T13:19:30;29.60;99.90
17619;DHT22;8928;51.678;6.074;2022-08-19T13:22:17;30.00;99.90
17619;DHT22;8928;51.678;6.074;2022-08-19T13:25:05;30.20;99.90
17619;DHT22;8928;51.678;6.074;2022-08-19T13:27:53;30.20;99.90
17619;DHT22;8928;51.678;6.074;2022-08-19T13:30:42;30.10;99.90
17619;DHT22;8928;51.678;6.074;2022-08-19T13:33:50;30.40;99.90
17619;DHT22;8928;51.678;6.074;2022-08-19T13:36:38;30.80;99.90
17619;DHT22;8928;51.678;6.074;2022-08-19T13:39:25;31.00;99.90
17619;DHT22;8928;51.678;6.074;2022-08-19T13:42:13;31.20;99.90
17619;DHT22;8928;51.678;6.074;2022-08-19T13:45:00;31.30;99.90
17619;DHT22;8928;51.678;6.074;2022-08-19T13:47:50;31.00;99.90
17619;DHT22;8928;51.678;6.074;2022-08-19T13:50:39;31.30;99.90
17619;DHT22;8928;51.678;6.074;2022-08-19T13:53:27;31.30;99.90
17619;DHT22;8928;51.678;6.074;2022-08-19T13:56:17;31.50;99.90
17619;DHT22;8928;51.678;6.074;2022-08-19T13:59:05;30.60;99.90
17619;DHT22;8928;51.678;6.074;2022-08-19T14:01:52;30.30;99.90
17619;DHT22;8928;51.678;6.074;2022-08-19T14:04:41;31.40;99.90
17619;DHT22;8928;51.678;6.074;2022-08-19T14:07:28;31.20;99.90
17619;DHT22;8928;51.678;6.074;2022-08-19T14:10:16;31.40;99.90
17619;DHT22;8928;51.678;6.074;2022-08-19T14:13:03;31.80;99.90
17619;DHT22;8928;51.678;6.074;2022-08-19T14:15:51;32.10;99.90
17619;DHT22;8928;51.678;6.074;2022-08-19T14:18:39;31.70;99.90
17619;DHT22;8928;51.678;6.074;2022-08-19T14:21:27;31.10;99.90
17619;DHT22;8928;51.678;6.074;2022-08-19T14:24:14;31.00;99.90
17619;DHT22;8928;51.678;6.074;2022-08-19T14:27:01;31.30;99.90
17619;DHT22;8928;51.678;6.074;2022-08-19T14:29:49;31.50;99.90
17619;DHT22;8928;51.678;6.074;2022-08-19T14:32:36;31.50;99.90
17619;DHT22;8928;51.678;6.074;2022-08-19T14:35:23;31.00;99.90
17619;DHT22;8928;51.678;6.074;2022-08-19T14:38:17;31.50;99.90
17619;DHT22;8928;51.678;6.074;2022-08-19T14:41:10;31.10;99.90
17619;DHT22;8928;51.678;6.074;2022-08-19T14:43:57;30.30;99.90
17619;DHT22;8928;51.678;6.074;2022-08-19T14:46:46;29.30;99.90
17619;DHT22;8928;51.678;6.074;2022-08-19T14:49:33;28.90;99.90
17619;DHT22;8928;51.678;6.074;2022-08-19T14:52:21;28.50;99.90
17619;DHT22;8928;51.678;6.074;2022-08-19T14:55:10;28.30;99.90
17619;DHT22;8928;51.678;6.074;2022-08-19T14:57:57;28.90;99.90
17619;DHT22;8928;51.678;6.074;2022-08-19T15:00:44;30.30;99.90
17619;DHT22;8928;51.678;6.074;2022-08-19T15:03:31;31.00;99.90
17619;DHT22;8928;51.678;6.074;2022-08-19T15:06:19;31.50;99.90
17619;DHT22;8928;51.678;6.074;2022-08-19T15:09:07;31.50;99.90
17619;DHT22;8928;51.678;6.074;2022-08-19T15:11:56;31.20;99.90
17619;DHT22;8928;51.678;6.074;2022-08-19T15:14:44;30.70;99.90
17619;DHT22;8928;51.678;6.074;2022-08-19T15:17:35;30.60;99.90
17619;DHT22;8928;51.678;6.074;2022-08-19T15:20:23;31.00;99.90
17619;DHT22;8928;51.678;6.074;2022-08-19T15:23:10;30.80;99.90
17619;DHT22;8928;51.678;6.074;2022-08-19T15:25:57;29.70;99.90
17619;DHT22;8928;51.678;6.074;2022-08-19T15:28:46;28.90;99.90
17619;DHT22;8928;51.678;6.074;2022-08-19T15:31:33;28.20;99.90
17619;DHT22;8928;51.678;6.074;2022-08-19T15:34:21;27.80;99.90
17619;DHT22;8928;51.678;6.074;2022-08-19T15:37:08;27.60;99.90
17619;DHT22;8928;51.678;6.074;2022-08-19T15:39:55;27.60;99.90
17619;DHT22;8928;51.678;6.074;2022-08-19T15:42:43;27.70;99.90
17619;DHT22;8928;51.678;6.074;2022-08-19T15:45:31;28.70;99.90
17619;DHT22;8928;51.678;6.074;2022-08-19T15:48:19;29.40;99.90
17619;DHT22;8928;51.678;6.074;2022-08-19T15:51:06;29.40;99.90
17619;DHT22;8928;51.678;6.074;2022-08-19T15:53:53;29.50;99.90
17619;DHT22;8928;51.678;6.074;2022-08-19T15:56:40;29.20;99.90
17619;DHT22;8928;51.678;6.074;2022-08-19T15:59:45;28.60;99.90
17619;DHT22;8928;51.678;6.074;2022-08-19T16:02:51;27.50;99.90
17619;DHT22;8928;51.678;6.074;2022-08-19T16:05:56;26.70;99.90
17619;DHT22;8928;51.678;6.074;2022-08-19T16:09:02;26.50;99.90
17619;DHT22;8928;51.678;6.074;2022-08-19T16:11:50;26.20;99.90
17619;DHT22;8928;51.678;6.074;2022-08-19T16:14:38;26.00;99.90
17619;DHT22;8928;51.678;6.074;2022-08-19T16:17:25;25.70;99.90
17619;DHT22;8928;51.678;6.074;2022-08-19T16:20:13;25.60;99.90
17619;DHT22;8928;51.678;6.074;2022-08-19T16:23:02;25.50;99.90
17619;DHT22;8928;51.678;6.074;2022-08-19T16:25:49;25.20;99.90
17619;DHT22;8928;51.678;6.074;2022-08-19T16:28:37;25.00;99.90
17619;DHT22;8928;51.678;6.074;2022-08-19T16:31:25;24.80;99.90
17619;DHT22;8928;51.678;6.074;2022-08-19T16:34:13;24.50;99.90
17619;DHT22;8928;51.678;6.074;2022-08-19T16:37:01;24.30;99.90
17619;DHT22;8928;51.678;6.074;2022-08-19T16:39:48;24.30;99.90
17619;DHT22;8928;51.678;6.074;2022-08-19T16:42:35;24.10;99.90
17619;DHT22;8928;51.678;6.074;2022-08-19T16:45:23;23.90;99.90
17619;DHT22;8928;51.678;6.074;2022-08-19T16:48:10;23.80;99.90
17619;DHT22;8928;51.678;6.074;2022-08-19T16:50:57;23.70;99.90
17619;DHT22;8928;51.678;6.074;2022-08-19T16:53:46;23.50;99.90
17619;DHT22;8928;51.678;6.074;2022-08-19T16:56:34;23.50;99.90
17619;DHT22;8928;51.678;6.074;2022-08-19T16:59:21;23.40;99.90
17619;DHT22;8928;51.678;6.074;2022-08-19T17:02:09;23.40;99.90
17619;DHT22;8928;51.678;6.074;2022-08-19T17:04:58;23.30;99.90
17619;DHT22;8928;51.678;6.074;2022-08-19T17:07:45;23.30;99.90
17619;DHT22;8928;51.678;6.074;2022-08-19T17:10:34;23.30;99.90
17619;DHT22;8928;51.678;6.074;2022-08-19T17:13:25;23.20;99.90
17619;DHT22;8928;51.678;6.074;2022-08-19T17:16:12;23.10;99.90
17619;DHT22;8928;51.678;6.074;2022-08-19T17:19:01;23.10;99.90
17619;DHT22;8928;51.678;6.074;2022-08-19T17:21:49;23.10;99.90
17619;DHT22;8928;51.678;6.074;2022-08-19T17:24:37;23.10;99.90
17619;DHT22;8928;51.678;6.074;2022-08-19T17:27:26;23.00;99.90
17619;DHT22;8928;51.678;6.074;2022-08-19T17:30:14;23.00;99.90
17619;DHT22;8928;51.678;6.074;2022-08-19T17:33:01;23.00;99.90
17619;DHT22;8928;51.678;6.074;2022-08-19T17:35:48;22.90;99.90
17619;DHT22;8928;51.678;6.074;2022-08-19T17:38:35;22.60;99.90
17619;DHT22;8928;51.678;6.074;2022-08-19T17:41:25;22.30;99.90
17619;DHT22;8928;51.678;6.074;2022-08-19T17:44:14;22.10;99.90
17619;DHT22;8928;51.678;6.074;2022-08-19T17:47:02;21.80;99.90
17619;DHT22;8928;51.678;6.074;2022-08-19T17:49:50;21.50;99.90
17619;DHT22;8928;51.678;6.074;2022-08-19T17:52:37;21.40;99.90
17619;DHT22;8928;51.678;6.074;2022-08-19T17:55:25;21.30;99.90
17619;DHT22;8928;51.678;6.074;2022-08-19T17:58:13;21.20;99.90
17619;DHT22;8928;51.678;6.074;2022-08-19T18:01:02;21.20;99.90
17619;DHT22;8928;51.678;6.074;2022-08-19T18:03:50;21.10;99.90